createdAt,value
2022-09-10T00:00:55.410Z,12.730713
2022-09-10T00:02:03.175Z,12.720642
2022-09-10T00:03:11.876Z,12.7005
2022-09-10T00:04:21.522Z,12.7005
2022-09-10T00:05:29.199Z,12.7005
2022-09-10T00:06:38.901Z,12.670288
2022-09-10T00:07:46.577Z,12.670288
2022-09-10T00:08:55.268Z,12.650146
2022-09-10T00:10:04.956Z,12.650146
2022-09-10T00:11:13.659Z,12.640076
2022-09-10T00:12:23.339Z,12.640076
2022-09-10T00:13:32.008Z,12.619934
2022-09-10T00:14:39.712Z,12.640076
2022-09-10T00:15:49.525Z,12.619934
2022-09-10T00:16:58.047Z,12.609863
2022-09-10T00:18:06.738Z,12.599792
2022-09-10T00:19:16.396Z,12.609863
2022-09-10T00:20:26.205Z,12.599792
2022-09-10T00:21:35.899Z,12.579651
2022-09-10T00:22:45.602Z,12.549438
2022-09-10T00:23:54.275Z,12.549438
2022-09-10T00:25:07.713Z,12.539368
2022-09-10T00:26:13.706Z,12.529297
2022-09-10T00:27:22.392Z,12.499084
2022-09-10T00:28:32.108Z,12.499084
2022-09-10T00:29:39.793Z,12.489014
2022-09-10T00:30:49.465Z,12.468872
2022-09-10T00:31:59.178Z,12.458801
2022-09-10T00:33:06.896Z,12.428589
2022-09-10T00:34:16.583Z,12.418518
2022-09-10T00:35:24.260Z,12.428589
2022-09-10T00:36:33.990Z,12.418518
2022-09-10T00:37:43.747Z,12.428589
2022-09-10T00:38:52.425Z,12.428589
2022-09-10T00:40:02.157Z,12.398376
2022-09-10T00:41:10.802Z,12.428589
2022-09-10T00:42:19.493Z,12.428589
2022-09-10T00:43:29.277Z,12.428589
2022-09-10T00:44:36.953Z,12.428589
2022-09-10T00:45:45.673Z,12.398376
2022-09-10T00:46:55.312Z,12.418518
2022-09-10T00:48:05.017Z,12.418518
2022-09-10T00:49:14.715Z,12.418518
2022-09-10T00:50:23.405Z,12.398376
2022-09-10T00:51:31.093Z,12.418518
2022-09-10T00:52:40.780Z,12.388306
2022-09-10T00:53:49.506Z,12.398376
2022-09-10T00:54:58.216Z,12.368164
2022-09-10T00:56:07.893Z,12.398376
2022-09-10T00:57:15.553Z,12.388306
2022-09-10T00:58:25.280Z,12.368164
2022-09-10T00:59:42.648Z,12.368164
2022-09-10T01:00:50.486Z,12.31781
2022-09-10T01:01:59.197Z,12.31781
2022-09-10T01:03:08.871Z,12.307739
2022-09-10T01:04:16.499Z,12.277527
2022-09-10T01:05:26.181Z,12.287598
2022-09-10T01:06:34.889Z,12.267456
2022-09-10T01:07:44.544Z,12.287598
2022-09-10T01:08:54.210Z,12.277527
2022-09-10T01:10:02.873Z,12.267456
2022-09-10T01:11:11.527Z,12.267456
2022-09-10T01:12:19.214Z,12.267456
2022-09-10T01:13:28.911Z,12.247314
2022-09-10T01:14:38.598Z,12.267456
2022-09-10T01:15:46.278Z,12.247314
2022-09-10T01:16:55.989Z,12.247314
2022-09-10T01:18:04.700Z,12.247314
2022-09-10T01:19:12.418Z,12.247314
2022-09-10T01:20:22.113Z,12.247314
2022-09-10T01:21:29.771Z,12.237244
2022-09-10T01:22:38.426Z,12.237244
2022-09-10T01:23:48.261Z,12.247314
2022-09-10T01:24:56.928Z,12.217102
2022-09-10T01:26:06.616Z,12.237244
2022-09-10T01:27:15.297Z,12.247314
2022-09-10T01:28:23.937Z,12.267456
2022-09-10T01:29:33.767Z,12.267456
2022-09-10T01:30:43.437Z,12.307739
2022-09-10T01:31:52.146Z,12.348022
2022-09-10T01:33:01.897Z,12.368164
2022-09-10T01:34:08.541Z,12.358093
2022-09-10T01:35:18.284Z,12.388306
2022-09-10T01:36:27.955Z,12.418518
2022-09-10T01:37:36.688Z,12.428589
2022-09-10T01:38:46.343Z,12.44873
2022-09-10T01:39:55.054Z,12.44873
2022-09-10T01:41:03.678Z,12.468872
2022-09-10T01:42:13.364Z,12.489014
2022-09-10T01:43:21.018Z,12.529297
2022-09-10T01:44:30.698Z,12.539368
2022-09-10T01:45:39.416Z,12.579651
2022-09-10T01:46:48.176Z,12.619934
2022-09-10T01:47:56.843Z,12.619934
2022-09-10T01:49:05.512Z,12.650146
2022-09-10T01:50:14.185Z,12.650146
2022-09-10T01:51:23.853Z,12.680359
2022-09-10T01:52:32.588Z,12.680359
2022-09-10T01:53:42.240Z,12.720642
2022-09-10T01:54:50.910Z,12.720642
2022-09-10T01:55:58.634Z,12.720642
2022-09-10T01:57:08.322Z,12.730713
2022-09-10T01:58:16.028Z,12.730713
2022-09-10T01:59:25.718Z,12.750854
2022-09-10T02:00:35.414Z,12.760925
2022-09-10T02:01:43.147Z,12.760925
2022-09-10T02:02:52.764Z,12.791138
2022-09-10T02:04:02.534Z,12.791138
2022-09-10T02:05:12.198Z,12.791138
2022-09-10T02:06:21.880Z,12.801208
2022-09-10T02:07:29.533Z,12.801208
2022-09-10T02:08:38.380Z,12.82135
2022-09-10T02:09:48.009Z,12.851562
2022-09-10T02:10:56.680Z,12.831421
2022-09-10T02:12:06.349Z,12.831421
2022-09-10T02:13:15.013Z,12.831421
2022-09-10T02:14:23.721Z,12.851562
2022-09-10T02:15:33.433Z,12.82135
2022-09-10T02:16:42.169Z,12.801208
2022-09-10T02:17:51.810Z,12.82135
2022-09-10T02:19:01.459Z,12.831421
2022-09-10T02:20:09.156Z,12.851562
2022-09-10T02:21:18.859Z,12.851562
2022-09-10T02:22:28.533Z,12.851562
2022-09-10T02:23:36.204Z,12.851562
2022-09-10T02:24:45.883Z,12.831421
2022-09-10T02:25:54.573Z,12.82135
2022-09-10T02:27:04.287Z,12.82135
2022-09-10T02:28:13.948Z,12.801208
2022-09-10T02:29:22.645Z,12.791138
2022-09-10T02:30:32.301Z,12.781067
2022-09-10T02:31:41.018Z,12.760925
2022-09-10T02:32:49.703Z,12.750854
2022-09-10T02:33:58.411Z,12.720642
2022-09-10T02:35:07.059Z,12.720642
2022-09-10T02:36:14.758Z,12.680359
2022-09-10T02:37:24.441Z,12.650146
2022-09-10T02:38:32.206Z,12.640076
2022-09-10T02:39:41.833Z,12.650146
2022-09-10T02:40:50.516Z,12.619934
2022-09-10T02:41:58.223Z,12.609863
2022-09-10T02:43:07.920Z,12.579651
2022-09-10T02:44:16.630Z,12.579651
2022-09-10T02:45:26.341Z,12.549438
2022-09-10T02:46:35.992Z,12.56958
2022-09-10T02:47:45.658Z,12.539368
2022-09-10T02:48:55.316Z,12.539368
2022-09-10T02:50:04.170Z,12.489014
2022-09-10T02:51:12.827Z,12.489014
2022-09-10T02:52:22.522Z,12.44873
2022-09-10T02:53:30.223Z,12.428589
2022-09-10T02:54:38.950Z,12.418518
2022-09-10T02:55:48.663Z,12.398376
2022-09-10T02:56:56.364Z,12.388306
2022-09-10T02:58:06.023Z,12.368164
2022-09-10T02:59:14.714Z,12.348022
2022-09-10T03:00:22.450Z,12.358093
2022-09-10T03:01:32.247Z,12.31781
2022-09-10T03:02:39.905Z,12.31781
2022-09-10T03:03:48.585Z,12.287598
2022-09-10T03:04:57.277Z,12.277527
2022-09-10T03:06:07.043Z,12.267456
2022-09-10T03:07:16.690Z,12.247314
2022-09-10T03:08:24.369Z,12.237244
2022-09-10T03:09:34.033Z,12.217102
2022-09-10T03:10:42.710Z,12.207031
2022-09-10T03:11:50.416Z,12.19696
2022-09-10T03:13:00.107Z,12.176819
2022-09-10T03:14:07.784Z,12.176819
2022-09-10T03:15:16.433Z,12.146606
2022-09-10T03:16:26.235Z,12.126465
2022-09-10T03:17:34.836Z,12.096252
2022-09-10T03:18:44.533Z,12.116394
2022-09-10T03:19:53.197Z,12.096252
2022-09-10T03:21:00.868Z,12.116394
2022-09-10T03:22:10.576Z,12.116394
2022-09-10T03:23:20.516Z,12.126465
2022-09-10T03:24:30.234Z,12.116394
2022-09-10T03:25:39.901Z,12.126465
2022-09-10T03:26:49.583Z,12.126465
2022-09-10T03:27:59.308Z,12.146606
2022-09-10T03:29:07.993Z,12.146606
2022-09-10T03:30:15.695Z,12.176819
2022-09-10T03:31:25.436Z,12.176819
2022-09-10T03:32:35.055Z,12.207031
2022-09-10T03:33:44.806Z,12.207031
2022-09-10T03:34:54.487Z,12.217102
2022-09-10T03:36:02.275Z,12.247314
2022-09-10T03:37:11.928Z,12.267456
2022-09-10T03:38:20.632Z,12.277527
2022-09-10T03:39:29.283Z,12.307739
2022-09-10T03:40:38.997Z,12.358093
2022-09-10T03:41:46.679Z,12.44873
2022-09-10T03:42:55.365Z,12.499084
2022-09-10T03:44:05.114Z,12.539368
2022-09-10T03:45:12.763Z,12.56958
2022-09-10T03:46:22.448Z,12.579651
2022-09-10T03:47:31.147Z,12.609863
2022-09-10T03:48:40.908Z,12.670288
2022-09-10T03:49:51.503Z,12.730713
2022-09-10T03:51:01.188Z,12.760925
2022-09-10T03:52:09.855Z,12.801208
2022-09-10T03:53:19.653Z,12.831421
2022-09-10T03:54:27.402Z,12.82135
2022-09-10T03:55:37.059Z,12.831421
2022-09-10T03:56:45.747Z,12.82135
2022-09-10T03:57:54.401Z,12.861633
2022-09-10T03:59:04.119Z,12.861633
2022-09-10T04:00:12.814Z,12.911987
2022-09-10T04:01:21.584Z,12.911987
2022-09-10T04:02:31.226Z,12.901917
2022-09-10T04:03:39.899Z,12.901917
2022-09-10T04:04:49.619Z,12.911987
2022-09-10T04:05:57.286Z,12.911987
2022-09-10T04:07:04.970Z,12.952271
2022-09-10T04:08:14.665Z,12.952271
2022-09-10T04:09:23.395Z,12.972412
2022-09-10T04:10:33.173Z,12.972412
2022-09-10T04:11:42.856Z,12.972412
2022-09-10T04:12:51.561Z,12.982483
2022-09-10T04:14:01.373Z,13.012695
2022-09-10T04:15:11.042Z,13.042908
2022-09-10T04:16:19.768Z,13.032837
2022-09-10T04:17:30.418Z,13.042908
2022-09-10T04:18:38.181Z,13.042908
2022-09-10T04:19:46.722Z,13.083191
2022-09-10T04:20:56.411Z,13.052979
2022-09-10T04:22:04.165Z,13.083191
2022-09-10T04:23:13.934Z,13.113403
2022-09-10T04:24:22.629Z,13.123474
2022-09-10T04:25:31.289Z,13.133545
2022-09-10T04:26:40.977Z,13.123474
2022-09-10T04:27:50.670Z,13.153687
2022-09-10T04:28:58.335Z,13.163757
2022-09-10T04:30:08.043Z,13.19397
2022-09-10T04:31:17.764Z,13.204041
2022-09-10T04:32:27.407Z,13.224182
2022-09-10T04:33:37.112Z,13.234253
2022-09-10T04:34:45.795Z,13.234253
2022-09-10T04:35:55.465Z,13.234253
2022-09-10T04:37:04.147Z,13.254395
2022-09-10T04:38:13.817Z,13.254395
2022-09-10T04:39:23.650Z,13.304749
2022-09-10T04:40:32.359Z,13.314819
2022-09-10T04:41:42.034Z,13.314819
2022-09-10T04:42:51.779Z,13.334961
2022-09-10T04:44:00.440Z,13.345032
2022-09-10T04:45:10.144Z,13.334961
2022-09-10T04:46:17.811Z,13.365173
2022-09-10T04:47:26.499Z,13.365173
2022-09-10T04:48:36.175Z,13.385315
2022-09-10T04:49:44.868Z,13.385315
2022-09-10T04:51:15.088Z,13.385315
2022-09-10T04:52:05.199Z,13.385315
2022-09-10T04:53:13.839Z,13.405457
2022-09-10T04:54:23.533Z,13.415527
2022-09-10T04:55:31.184Z,13.435669
2022-09-10T04:56:40.992Z,13.465881
2022-09-10T04:57:49.652Z,13.465881
2022-09-10T04:58:57.319Z,13.496094
2022-09-10T05:00:06.985Z,13.496094
2022-09-10T05:01:15.764Z,13.516235
2022-09-10T05:02:25.400Z,13.526306
2022-09-10T05:03:34.071Z,13.526306
2022-09-10T05:04:41.748Z,13.566589
2022-09-10T05:05:50.437Z,13.586731
2022-09-10T05:06:58.096Z,13.616943
2022-09-10T05:08:06.792Z,13.627014
2022-09-10T05:09:16.462Z,13.69751
2022-09-10T05:10:24.154Z,13.69751
2022-09-10T05:11:33.820Z,13.717651
2022-09-10T05:12:42.511Z,13.737793
2022-09-10T05:13:50.227Z,13.747864
2022-09-10T05:14:59.915Z,13.768005
2022-09-10T05:16:09.638Z,13.768005
2022-09-10T05:17:19.257Z,13.747864
2022-09-10T05:18:28.959Z,13.768005
2022-09-10T05:19:36.650Z,13.747864
2022-09-10T05:20:46.381Z,13.737793
2022-09-10T05:21:56.106Z,13.717651
2022-09-10T05:23:03.802Z,13.69751
2022-09-10T05:24:13.524Z,13.707581
2022-09-10T05:25:22.219Z,13.707581
2022-09-10T05:26:30.890Z,13.69751
2022-09-10T05:27:40.574Z,13.677368
2022-09-10T05:28:48.211Z,13.677368
2022-09-10T05:29:57.873Z,13.667297
2022-09-10T05:31:06.704Z,13.667297
2022-09-10T05:32:15.333Z,13.667297
2022-09-10T05:33:25.049Z,13.677368
2022-09-10T05:34:32.712Z,13.677368
2022-09-10T05:35:41.389Z,13.677368
2022-09-10T05:36:51.105Z,13.707581
2022-09-10T05:38:00.776Z,13.717651
2022-09-10T05:39:10.441Z,13.737793
2022-09-10T05:40:19.103Z,13.737793
2022-09-10T05:41:27.763Z,13.737793
2022-09-10T05:42:36.494Z,13.717651
2022-09-10T05:43:45.156Z,13.737793
2022-09-10T05:44:53.817Z,13.737793
2022-09-10T05:46:03.593Z,13.717651
2022-09-10T05:47:11.235Z,13.737793
2022-09-10T05:48:20.914Z,13.707581
2022-09-10T05:49:29.603Z,13.69751
2022-09-10T05:50:38.311Z,13.667297
2022-09-10T05:51:47.979Z,13.647156
2022-09-10T05:52:56.720Z,13.647156
2022-09-10T05:54:05.446Z,13.596802
2022-09-10T05:55:15.120Z,13.596802
2022-09-10T05:56:22.781Z,13.596802
2022-09-10T05:57:32.472Z,13.616943
2022-09-10T05:58:40.332Z,13.616943
2022-09-10T05:59:47.916Z,13.596802
2022-09-10T06:00:57.623Z,13.616943
2022-09-10T06:02:06.452Z,13.627014
2022-09-10T06:03:16.027Z,13.647156
2022-09-10T06:04:24.663Z,13.647156
2022-09-10T06:05:32.346Z,13.667297
2022-09-10T06:06:42.012Z,13.677368
2022-09-10T06:07:50.687Z,13.69751
2022-09-10T06:08:59.343Z,13.707581
2022-09-10T06:10:09.016Z,13.717651
2022-09-10T06:11:16.739Z,13.768005
2022-09-10T06:12:25.419Z,13.768005
2022-09-10T06:13:35.103Z,13.778076
2022-09-10T06:14:43.790Z,13.778076
2022-09-10T06:15:53.452Z,13.788147
2022-09-10T06:17:02.145Z,13.808289
2022-09-10T06:18:10.828Z,13.82843
2022-09-10T06:19:20.555Z,13.808289
2022-09-10T06:20:30.190Z,13.858643
2022-09-10T06:21:38.858Z,13.808289
2022-09-10T06:22:48.569Z,13.717651
2022-09-10T06:23:56.344Z,13.647156
2022-09-10T06:25:05.917Z,13.556519
2022-09-10T06:26:14.621Z,13.496094
2022-09-10T06:27:22.347Z,13.496094
2022-09-10T06:28:31.109Z,13.455811
2022-09-10T06:29:39.815Z,13.435669
2022-09-10T06:30:48.564Z,13.385315
2022-09-10T06:31:58.231Z,13.385315
2022-09-10T06:33:06.020Z,13.365173
2022-09-10T06:34:15.751Z,13.385315
2022-09-10T06:35:24.439Z,13.334961
2022-09-10T06:36:33.103Z,13.334961
2022-09-10T06:37:42.795Z,13.334961
2022-09-10T06:38:50.513Z,13.345032
2022-09-10T06:40:00.326Z,13.334961
2022-09-10T06:41:09.920Z,13.345032
2022-09-10T06:42:17.656Z,13.314819
2022-09-10T06:43:27.329Z,13.334961
2022-09-10T06:44:36.024Z,13.314819
2022-09-10T06:45:44.911Z,13.304749
2022-09-10T06:47:30.748Z,13.284607
2022-09-10T06:49:16.003Z,13.284607
2022-09-10T06:50:25.814Z,13.254395
2022-09-10T06:51:33.535Z,13.274536
2022-09-10T06:52:43.233Z,13.274536
2022-09-10T06:53:52.950Z,13.234253
2022-09-10T06:55:00.650Z,13.234253
2022-09-10T06:56:10.447Z,13.224182
2022-09-10T06:57:19.150Z,13.234253
2022-09-10T06:58:26.818Z,13.204041
2022-09-10T06:59:36.540Z,13.224182
2022-09-10T07:00:45.253Z,13.204041
2022-09-10T07:01:55.039Z,13.204041
2022-09-10T07:03:03.701Z,13.224182
2022-09-10T07:04:13.397Z,13.224182
2022-09-10T07:05:22.109Z,13.224182
2022-09-10T07:06:31.807Z,13.254395
2022-09-10T07:07:41.518Z,13.234253
2022-09-10T07:08:50.266Z,13.274536
2022-09-10T07:09:58.930Z,13.274536
2022-09-10T07:11:08.625Z,13.304749
2022-09-10T07:12:17.298Z,13.314819
2022-09-10T07:13:27.001Z,13.314819
2022-09-10T07:14:36.724Z,13.365173
2022-09-10T07:15:45.491Z,13.385315
2022-09-10T07:16:55.138Z,13.385315
2022-09-10T07:18:04.895Z,13.415527
2022-09-10T07:19:12.572Z,13.455811
2022-09-10T07:20:22.317Z,13.465881
2022-09-10T07:21:30.983Z,13.455811
2022-09-10T07:22:40.707Z,13.415527
2022-09-10T07:23:50.338Z,13.375244
2022-09-10T07:24:59.017Z,13.415527
2022-09-10T07:26:08.767Z,13.455811
2022-09-10T07:27:18.445Z,13.496094
2022-09-10T07:28:28.169Z,13.496094
2022-09-10T07:29:37.855Z,13.496094
2022-09-10T07:30:45.595Z,13.516235
2022-09-10T07:31:55.261Z,13.536377
2022-09-10T07:33:04.941Z,13.596802
2022-09-10T07:34:12.605Z,13.616943
2022-09-10T07:35:22.324Z,13.536377
2022-09-10T07:36:31.003Z,13.586731
2022-09-10T07:37:39.710Z,13.586731
2022-09-10T07:38:49.438Z,13.627014
2022-09-10T07:39:58.163Z,13.677368
2022-09-10T07:41:07.839Z,13.717651
2022-09-10T07:42:15.546Z,13.808289
2022-09-10T07:43:24.242Z,13.858643
2022-09-10T07:44:33.960Z,13.747864
2022-09-10T07:45:42.707Z,13.778076
2022-09-10T07:46:51.321Z,13.848572
2022-09-10T07:48:00.999Z,13.858643
2022-09-10T07:49:09.805Z,13.94928
2022-09-10T07:50:19.525Z,13.999634
2022-09-10T07:51:28.222Z,14.100342
2022-09-10T07:52:36.882Z,14.150696
2022-09-10T07:53:50.409Z,14.20105
2022-09-10T07:54:56.303Z,14.180908
2022-09-10T07:56:05.935Z,14.20105
2022-09-10T07:57:15.658Z,14.221191
2022-09-10T07:58:23.381Z,14.231262
2022-09-10T07:59:33.049Z,14.180908
2022-09-10T08:00:42.903Z,14.150696
2022-09-10T08:01:51.627Z,14.150696
2022-09-10T08:03:01.309Z,14.180908
2022-09-10T08:04:11.019Z,14.231262
2022-09-10T08:05:20.703Z,14.231262
2022-09-10T08:06:30.404Z,14.251404
2022-09-10T08:07:38.104Z,14.221191
2022-09-10T08:08:47.817Z,14.20105
2022-09-10T08:09:56.471Z,14.20105
2022-09-10T08:11:08.536Z,14.170837
2022-09-10T08:12:14.845Z,14.180908
2022-09-10T08:13:24.529Z,14.281616
2022-09-10T08:14:33.186Z,14.301758
2022-09-10T08:15:42.904Z,14.33197
2022-09-10T08:16:50.561Z,14.352112
2022-09-10T08:18:00.255Z,14.352112
2022-09-10T08:19:08.948Z,14.362183
2022-09-10T08:20:16.610Z,14.402466
2022-09-10T08:21:26.317Z,14.432678
2022-09-10T08:22:36.000Z,14.45282
2022-09-10T08:23:44.684Z,14.442749
2022-09-10T08:24:54.412Z,14.442749
2022-09-10T08:26:02.105Z,14.45282
2022-09-10T08:27:11.790Z,14.432678
2022-09-10T08:28:25.291Z,14.372253
2022-09-10T08:29:30.115Z,14.402466
2022-09-10T08:30:39.782Z,14.432678
2022-09-10T08:31:48.470Z,14.442749
2022-09-10T08:32:57.131Z,14.412537
2022-09-10T08:34:06.791Z,14.412537
2022-09-10T08:35:15.514Z,14.412537
2022-09-10T08:36:25.249Z,14.372253
2022-09-10T08:37:34.932Z,14.402466
2022-09-10T08:38:44.632Z,14.442749
2022-09-10T08:39:55.354Z,14.442749
2022-09-10T08:41:04.025Z,14.432678
2022-09-10T08:42:13.728Z,14.442749
2022-09-10T08:43:23.432Z,14.503174
2022-09-10T08:44:32.073Z,14.533386
2022-09-10T08:45:41.794Z,14.543457
2022-09-10T08:46:51.437Z,14.553528
2022-09-10T08:48:00.121Z,14.553528
2022-09-10T08:49:09.810Z,14.624023
2022-09-10T08:50:18.464Z,14.684448
2022-09-10T08:51:27.138Z,14.765015
2022-09-10T08:52:36.983Z,14.815369
2022-09-10T08:53:44.652Z,14.855652
2022-09-10T08:54:53.383Z,14.885864
2022-09-10T08:56:03.039Z,14.95636
2022-09-10T08:57:12.751Z,15.08728
2022-09-10T08:58:22.481Z,15.20813
2022-09-10T08:59:31.213Z,15.308838
2022-09-10T09:00:38.885Z,15.349121
2022-09-10T09:01:48.659Z,15.359192
2022-09-10T09:02:57.317Z,15.349121
2022-09-10T09:04:06.348Z,15.429688
2022-09-10T09:05:15.706Z,15.490112
2022-09-10T09:06:23.378Z,15.610962
2022-09-10T09:07:33.073Z,15.701599
2022-09-10T09:08:42.745Z,15.822449
2022-09-10T09:09:52.507Z,15.943298
2022-09-10T09:11:02.204Z,16.08429
2022-09-10T09:12:09.881Z,16.09436
2022-09-10T09:13:18.541Z,16.154785
2022-09-10T09:14:28.252Z,16.054077
2022-09-10T09:15:36.986Z,16.044006
2022-09-10T09:16:46.637Z,15.943298
2022-09-10T09:17:56.382Z,15.923157
2022-09-10T09:19:05.109Z,15.882874
2022-09-10T09:20:14.807Z,15.882874
2022-09-10T09:21:22.615Z,15.923157
2022-09-10T09:22:31.294Z,15.973511
2022-09-10T09:23:51.931Z,15.973511
2022-09-10T09:24:51.585Z,16.023865
2022-09-10T09:26:01.268Z,16.09436
2022-09-10T09:27:10.011Z,16.09436
2022-09-10T09:28:18.730Z,16.104431
2022-09-10T09:29:28.408Z,16.09436
2022-09-10T09:30:36.077Z,16.013794
2022-09-10T09:31:45.800Z,15.83252
2022-09-10T09:32:55.606Z,15.792236
2022-09-10T09:34:04.287Z,15.721741
2022-09-10T09:35:13.982Z,15.641174
2022-09-10T09:36:23.666Z,15.439758
2022-09-10T09:37:33.348Z,15.359192
2022-09-10T09:38:42.048Z,15.429688
2022-09-10T09:39:49.729Z,15.429688
2022-09-10T09:40:59.403Z,15.490112
2022-09-10T09:42:07.092Z,15.469971
2022-09-10T09:43:15.769Z,15.540466
2022-09-10T09:44:25.486Z,15.570679
2022-09-10T09:45:34.223Z,15.621033
2022-09-10T09:46:43.855Z,15.621033
2022-09-10T09:47:53.534Z,15.610962
2022-09-10T09:49:01.190Z,15.641174
2022-09-10T09:50:10.974Z,15.621033
2022-09-10T09:51:18.590Z,15.610962
2022-09-10T09:52:27.255Z,15.58075
2022-09-10T09:53:36.941Z,15.510254
2022-09-10T09:55:12.972Z,15.540466
2022-09-10T09:55:57.293Z,15.540466
2022-09-10T09:57:05.953Z,15.4599
2022-09-10T09:58:13.647Z,15.4599
2022-09-10T09:59:23.411Z,15.389404
2022-09-10T10:00:32.084Z,15.177917
2022-09-10T10:01:40.806Z,15.137634
2022-09-10T10:02:50.456Z,15.057068
2022-09-10T10:03:58.177Z,15.026855
2022-09-10T10:05:07.853Z,14.996643
2022-09-10T10:06:17.536Z,15.036926
2022-09-10T10:07:25.344Z,15.057068
2022-09-10T10:08:35.066Z,14.815369
2022-09-10T10:09:43.818Z,14.734802
2022-09-10T10:10:52.492Z,14.724731
2022-09-10T10:12:02.187Z,14.634094
2022-09-10T10:13:09.912Z,14.654236
2022-09-10T10:14:19.622Z,14.593811
2022-09-10T10:15:29.301Z,14.593811
2022-09-10T10:16:37.957Z,14.45282
2022-09-10T10:17:47.670Z,14.402466
2022-09-10T10:18:56.366Z,14.261475
2022-09-10T10:20:06.074Z,14.170837
2022-09-10T10:21:15.715Z,14.150696
2022-09-10T10:22:24.397Z,14.150696
2022-09-10T10:23:34.071Z,14.170837
2022-09-10T10:24:43.918Z,14.170837
2022-09-10T10:25:52.638Z,14.221191
2022-09-10T10:27:02.351Z,14.251404
2022-09-10T10:28:10.027Z,14.261475
2022-09-10T10:29:18.904Z,14.291687
2022-09-10T10:30:28.632Z,14.301758
2022-09-10T10:31:37.293Z,14.33197
2022-09-10T10:32:46.983Z,14.352112
2022-09-10T10:33:56.703Z,14.352112
2022-09-10T10:35:05.448Z,14.372253
2022-09-10T10:36:15.145Z,14.442749
2022-09-10T10:37:23.863Z,14.442749
2022-09-10T10:38:32.637Z,14.442749
2022-09-10T10:39:43.128Z,14.442749
2022-09-10T10:40:51.777Z,14.412537
2022-09-10T10:42:01.458Z,14.362183
2022-09-10T10:43:09.115Z,14.402466
2022-09-10T10:44:16.829Z,14.442749
2022-09-10T10:45:26.558Z,14.45282
2022-09-10T10:46:34.262Z,14.543457
2022-09-10T10:47:43.934Z,14.624023
2022-09-10T10:48:57.721Z,14.694519
2022-09-10T10:50:03.266Z,14.734802
2022-09-10T10:51:12.999Z,14.815369
2022-09-10T10:52:22.688Z,14.986572
2022-09-10T10:53:30.339Z,15.097351
2022-09-10T10:54:40.075Z,15.248413
2022-09-10T10:55:47.764Z,15.359192
2022-09-10T10:56:57.403Z,15.399475
2022-09-10T10:58:07.104Z,15.59082
2022-09-10T10:59:14.815Z,15.792236
2022-09-10T11:00:24.493Z,15.953369
2022-09-10T11:01:33.190Z,15.983582
2022-09-10T11:02:41.949Z,16.154785
2022-09-10T11:03:51.585Z,16.003723
2022-09-10T11:05:00.321Z,16.023865
2022-09-10T11:06:10.002Z,16.08429
2022-09-10T11:07:19.693Z,16.044006
2022-09-10T11:08:29.465Z,15.923157
2022-09-10T11:09:39.155Z,16.003723
2022-09-10T11:10:48.949Z,16.023865
2022-09-10T11:11:56.629Z,15.983582
2022-09-10T11:13:05.285Z,16.023865
2022-09-10T11:14:12.969Z,16.154785
2022-09-10T11:15:21.706Z,16.195068
2022-09-10T11:16:31.441Z,16.134644
2022-09-10T11:17:41.102Z,16.235352
2022-09-10T11:18:50.815Z,16.356201
2022-09-10T11:20:17.459Z,16.426697
2022-09-10T11:21:10.225Z,16.507263
2022-09-10T11:22:19.910Z,16.648254
2022-09-10T11:23:28.596Z,16.71875
2022-09-10T11:24:38.288Z,16.648254
2022-09-10T11:25:47.923Z,16.648254
2022-09-10T11:26:57.648Z,16.638184
2022-09-10T11:28:07.343Z,16.5979
2022-09-10T11:29:17.063Z,16.648254
2022-09-10T11:30:25.738Z,16.567688
2022-09-10T11:31:35.459Z,16.638184
2022-09-10T11:32:45.110Z,16.648254
2022-09-10T11:33:54.915Z,16.759033
2022-09-10T11:35:04.604Z,16.8396
2022-09-10T11:36:13.272Z,17.051086
2022-09-10T11:37:22.954Z,17.141724
2022-09-10T11:38:32.649Z,17.302856
2022-09-10T11:39:42.465Z,17.484131
2022-09-10T11:40:52.087Z,17.60498
2022-09-10T11:42:00.756Z,17.645264
2022-09-10T11:43:10.441Z,17.816467
2022-09-10T11:44:19.140Z,18.078308
2022-09-10T11:45:27.816Z,18.22937
2022-09-10T11:46:37.522Z,18.309937
2022-09-10T11:47:45.253Z,18.128662
2022-09-10T11:48:54.946Z,18.078308
2022-09-10T11:50:04.649Z,18.048096
2022-09-10T11:51:13.340Z,17.917175
2022-09-10T11:52:23.044Z,17.866821
2022-09-10T11:53:31.869Z,17.866821
2022-09-10T11:54:41.540Z,17.947388
2022-09-10T11:55:51.257Z,18.038025
2022-09-10T11:57:00.936Z,18.108521
2022-09-10T11:58:10.614Z,18.189087
2022-09-10T11:59:20.281Z,18.370361
2022-09-10T12:00:27.958Z,18.35022
2022-09-10T12:01:37.687Z,18.259583
2022-09-10T12:02:45.495Z,18.35022
2022-09-10T12:03:54.219Z,18.531494
2022-09-10T12:05:03.851Z,18.501282
2022-09-10T12:06:13.579Z,18.813477
2022-09-10T12:07:23.468Z,19.23645
2022-09-10T12:08:32.212Z,19.407654
2022-09-10T12:09:39.912Z,19.770203
2022-09-10T12:10:49.593Z,20.223389
2022-09-10T12:11:57.280Z,20.253601
2022-09-10T12:13:06.919Z,19.850769
2022-09-10T12:14:16.665Z,19.810486
2022-09-10T12:15:25.333Z,19.810486
2022-09-10T12:16:34.998Z,19.689636
2022-09-10T12:17:44.658Z,19.770203
2022-09-10T12:18:52.315Z,19.639282
2022-09-10T12:20:02.130Z,19.669495
2022-09-10T12:21:10.735Z,19.850769
2022-09-10T12:22:19.413Z,19.558716
2022-09-10T12:23:29.090Z,19.256592
2022-09-10T12:24:37.747Z,19.216309
2022-09-10T12:25:47.453Z,19.024963
2022-09-10T12:26:56.215Z,18.773193
2022-09-10T12:28:05.924Z,18.702698
2022-09-10T12:29:16.584Z,18.73291
2022-09-10T12:30:24.247Z,18.98468
2022-09-10T12:31:34.021Z,19.337158
2022-09-10T12:32:43.646Z,19.639282
2022-09-10T12:33:51.345Z,20.001831
2022-09-10T12:35:01.042Z,20.545654
2022-09-10T12:36:10.003Z,20.505371
2022-09-10T12:37:18.705Z,20.505371
2022-09-10T12:38:28.405Z,20.686646
2022-09-10T12:39:38.074Z,20.646362
2022-09-10T12:40:46.738Z,20.807495
2022-09-10T12:41:56.412Z,20.656433
2022-09-10T12:43:05.125Z,20.61615
2022-09-10T12:44:14.840Z,20.767212
2022-09-10T12:45:24.518Z,20.877991
2022-09-10T12:46:33.193Z,20.968628
2022-09-10T12:47:43.829Z,20.716858
2022-09-10T12:48:53.569Z,20.918274
2022-09-10T12:50:02.275Z,20.968628
2022-09-10T12:51:11.923Z,21.24054
2022-09-10T12:52:19.588Z,21.139832
2022-09-10T12:53:29.256Z,21.25061
2022-09-10T12:54:37.943Z,21.220398
2022-09-10T12:55:47.620Z,21.431885
2022-09-10T12:56:57.293Z,21.049194
2022-09-10T12:58:04.986Z,21.290894
2022-09-10T12:59:13.696Z,21.452026
2022-09-10T13:00:23.455Z,21.351318
2022-09-10T13:01:32.222Z,21.824646
2022-09-10T13:02:41.772Z,21.552734
2022-09-10T13:03:51.502Z,21.170044
2022-09-10T13:04:59.161Z,21.290894
2022-09-10T13:06:08.883Z,21.613159
2022-09-10T13:07:17.606Z,21.905212
2022-09-10T13:08:26.271Z,22.106628
2022-09-10T13:09:36.048Z,22.428894
2022-09-10T13:10:43.727Z,22.348328
2022-09-10T13:11:53.459Z,22.136841